createdAt,value
2018-10-09T00:01:23.905Z,94.60
2018-10-09T00:06:27.449Z,94.80
2018-10-09T00:11:30.645Z,94.90
2018-10-09T00:16:34.122Z,94.90
2018-10-09T00:21:37.248Z,95.10
2018-10-09T00:26:40.440Z,94.80
2018-10-09T00:31:43.555Z,94.90
2018-10-09T00:36:46.711Z,94.90
2018-10-09T00:41:49.836Z,94.90
2018-10-09T00:46:52.994Z,94.80
2018-10-09T00:51:56.182Z,95.00
2018-10-09T00:56:59.248Z,94.60
2018-10-09T01:02:02.372Z,94.80
2018-10-09T01:07:05.529Z,94.60
2018-10-09T01:12:08.715Z,94.60
2018-10-09T01:17:11.861Z,94.40
2018-10-09T01:22:15.256Z,94.50
2018-10-09T01:27:18.446Z,94.70
2018-10-09T01:32:21.664Z,94.30
2018-10-09T01:37:24.812Z,94.30
2018-10-09T01:42:27.936Z,94.20
2018-10-09T01:47:31.109Z,94.30
2018-10-09T01:52:34.246Z,94.40
2018-10-09T01:57:37.433Z,94.40
2018-10-09T02:02:40.664Z,94.20
2018-10-09T02:07:43.840Z,94.50
2018-10-09T02:12:46.957Z,94.60
2018-10-09T02:17:50.179Z,94.50
2018-10-09T02:22:53.286Z,94.20
2018-10-09T02:27:56.401Z,94.20
2018-10-09T02:32:59.616Z,94.30
2018-10-09T02:38:02.756Z,94.40
2018-10-09T02:43:05.844Z,94.50
2018-10-09T02:48:09.025Z,94.60
2018-10-09T02:53:12.129Z,94.70
2018-10-09T02:58:15.311Z,94.60
2018-10-09T03:03:18.476Z,94.90
2018-10-09T03:08:21.647Z,94.70
2018-10-09T03:13:24.767Z,94.70
2018-10-09T03:18:27.993Z,94.80
2018-10-09T03:23:31.196Z,94.70
2018-10-09T03:28:34.334Z,94.80
2018-10-09T03:33:37.490Z,95.00
2018-10-09T03:38:40.680Z,95.00
2018-10-09T03:43:43.900Z,95.30
2018-10-09T03:48:47.007Z,95.50
2018-10-09T03:53:50.195Z,95.90
2018-10-09T03:58:53.342Z,96.10
2018-10-09T04:03:56.769Z,96.10
2018-10-09T04:08:59.977Z,95.90
2018-10-09T04:14:03.034Z,95.90
2018-10-09T04:19:06.247Z,95.90
2018-10-09T04:24:09.406Z,95.80
2018-10-09T04:29:12.527Z,95.70
2018-10-09T04:34:15.647Z,95.40
2018-10-09T04:39:18.802Z,95.50
2018-10-09T04:44:21.951Z,95.60
2018-10-09T04:49:25.055Z,95.20
2018-10-09T04:54:28.345Z,95.20
2018-10-09T04:59:31.467Z,95.30
2018-10-09T05:04:34.695Z,95.30
2018-10-09T05:09:37.759Z,95.30
2018-10-09T05:14:40.921Z,95.30
2018-10-09T05:19:44.097Z,95.60
2018-10-09T05:24:47.261Z,95.50
2018-10-09T05:29:50.422Z,95.50
2018-10-09T05:34:53.576Z,95.30
2018-10-09T05:39:56.731Z,95.00
2018-10-09T05:44:59.899Z,94.90
2018-10-09T05:50:03.054Z,95.00
2018-10-09T05:55:06.711Z,95.20
2018-10-09T06:00:10.416Z,95.30
2018-10-09T06:05:13.572Z,95.00
2018-10-09T06:10:16.734Z,95.00
2018-10-09T06:15:19.934Z,94.90
2018-10-09T06:20:23.103Z,94.80
2018-10-09T06:25:26.221Z,94.40
2018-10-09T06:30:29.393Z,94.10
2018-10-09T06:35:32.674Z,94.20
2018-10-09T06:40:35.879Z,93.80
2018-10-09T06:45:38.956Z,93.00
2018-10-09T06:50:42.113Z,92.30
2018-10-09T06:55:45.497Z,91.90
2018-10-09T07:00:48.637Z,91.40
2018-10-09T07:05:51.792Z,90.50
2018-10-09T07:10:55.355Z,90.00
2018-10-09T07:15:58.534Z,89.60
2018-10-09T07:21:01.706Z,89.20
2018-10-09T07:26:04.874Z,88.60
2018-10-09T07:31:08.002Z,86.70
2018-10-09T07:36:11.190Z,87.00
2018-10-09T07:41:14.282Z,86.70
2018-10-09T07:46:17.425Z,87.70
2018-10-09T07:51:20.583Z,89.10
2018-10-09T07:56:23.753Z,89.60
2018-10-09T08:01:26.926Z,89.10
2018-10-09T08:06:30.109Z,89.10
2018-10-09T08:11:33.237Z,89.70
2018-10-09T08:16:36.612Z,90.00
2018-10-09T08:21:39.742Z,90.20
2018-10-09T08:26:42.902Z,89.40
2018-10-09T08:31:46.063Z,88.70
2018-10-09T08:36:49.239Z,88.80
2018-10-09T08:41:52.409Z,89.50
2018-10-09T08:46:55.586Z,89.50
2018-10-09T08:51:58.827Z,88.90
2018-10-09T08:57:01.958Z,88.50
2018-10-09T09:02:05.125Z,88.60
2018-10-09T09:07:08.246Z,89.50
2018-10-09T09:12:11.434Z,88.40
2018-10-09T09:17:14.555Z,89.20
2018-10-09T09:22:17.723Z,88.30
2018-10-09T09:27:20.893Z,85.80
2018-10-09T09:32:24.039Z,84.50
2018-10-09T09:37:27.187Z,82.10
2018-10-09T09:42:30.350Z,79.50
2018-10-09T09:47:33.594Z,79.00
2018-10-09T09:52:36.715Z,76.10
2018-10-09T09:57:39.896Z,74.20
2018-10-09T10:02:43.004Z,73.10
2018-10-09T10:07:46.206Z,72.20
2018-10-09T10:12:49.359Z,69.10
2018-10-09T10:17:52.440Z,68.20
2018-10-09T10:22:55.615Z,66.50
2018-10-09T10:27:58.824Z,65.80
2018-10-09T10:33:01.952Z,64.40
2018-10-09T10:38:05.176Z,64.10
2018-10-09T10:43:08.353Z,64.50
2018-10-09T10:48:11.554Z,64.00
2018-10-09T10:53:14.742Z,63.80
2018-10-09T10:58:17.874Z,63.30
2018-10-09T11:03:21.033Z,62.60
2018-10-09T11:08:24.275Z,60.90
2018-10-09T11:13:27.417Z,59.00
2018-10-09T11:18:30.609Z,59.30
2018-10-09T11:23:33.797Z,60.10
2018-10-09T11:28:37.043Z,61.50
2018-10-09T11:33:40.184Z,61.90
2018-10-09T11:38:43.390Z,62.40
2018-10-09T11:43:46.527Z,65.00
2018-10-09T11:48:49.698Z,66.50
2018-10-09T11:53:52.868Z,66.50
2018-10-09T11:58:56.025Z,60.40
2018-10-09T12:03:59.200Z,55.90
2018-10-09T12:09:02.341Z,51.80
2018-10-09T12:14:05.499Z,49.00
2018-10-09T12:19:08.671Z,46.40
2018-10-09T12:24:11.918Z,46.00
2018-10-09T12:29:15.054Z,44.20
2018-10-09T12:34:18.240Z,43.00
2018-10-09T12:39:21.387Z,42.30
2018-10-09T12:44:24.615Z,41.40
2018-10-09T12:49:27.662Z,43.40
2018-10-09T12:54:30.865Z,43.10
2018-10-09T12:59:34.040Z,44.40
2018-10-09T13:04:37.232Z,46.20
2018-10-09T13:09:40.448Z,46.60
2018-10-09T13:14:43.537Z,47.30
2018-10-09T13:19:46.684Z,47.50
2018-10-09T13:24:49.910Z,48.60
2018-10-09T13:29:53.060Z,50.70
2018-10-09T13:34:56.257Z,52.80
2018-10-09T13:39:59.449Z,56.00
2018-10-09T13:45:02.607Z,58.40
2018-10-09T13:50:05.759Z,61.20
2018-10-09T13:55:08.919Z,63.20
2018-10-09T14:00:12.110Z,64.30
2018-10-09T14:05:15.255Z,63.30
2018-10-09T14:10:18.414Z,61.70
2018-10-09T14:15:21.612Z,62.50
2018-10-09T14:20:24.751Z,62.90
2018-10-09T14:25:27.921Z,62.80
2018-10-09T14:30:31.091Z,61.10
2018-10-09T14:35:34.209Z,61.90
2018-10-09T14:40:37.342Z,61.10
2018-10-09T14:45:40.494Z,59.70
2018-10-09T14:50:43.727Z,60.80
2018-10-09T14:55:46.879Z,60.60
2018-10-09T15:00:50.040Z,62.10
2018-10-09T15:05:53.234Z,62.60
2018-10-09T15:10:56.415Z,62.30
2018-10-09T15:16:00.430Z,64.50
2018-10-09T15:21:03.594Z,65.00
2018-10-09T15:26:07.304Z,65.30
2018-10-09T15:31:10.414Z,65.30
2018-10-09T15:36:13.567Z,65.50
2018-10-09T15:41:17.106Z,66.80
2018-10-09T15:46:20.286Z,67.60
2018-10-09T15:51:23.453Z,68.60
2018-10-09T15:56:26.689Z,68.90
2018-10-09T16:01:29.827Z,69.30
2018-10-09T16:06:33.094Z,70.40
2018-10-09T16:11:36.304Z,71.70
2018-10-09T16:16:39.773Z,72.30
2018-10-09T16:21:42.894Z,73.20
2018-10-09T16:26:46.091Z,74.20
2018-10-09T16:31:49.273Z,75.40
2018-10-09T16:36:52.408Z,76.80
2018-10-09T16:41:55.504Z,76.80
2018-10-09T16:47:00.663Z,77.90
2018-10-09T16:52:03.834Z,79.20
2018-10-09T16:57:06.991Z,80.50
2018-10-09T17:02:10.172Z,81.40
2018-10-09T17:07:13.512Z,82.40
2018-10-09T17:12:16.622Z,82.90
2018-10-09T17:17:19.694Z,84.10
2018-10-09T17:22:23.311Z,84.20
2018-10-09T17:27:26.358Z,84.60
2018-10-09T17:32:29.587Z,84.50
2018-10-09T17:37:32.702Z,84.60
2018-10-09T17:42:36.782Z,85.50
2018-10-09T17:47:40.046Z,85.10
2018-10-09T17:52:43.217Z,85.40
2018-10-09T17:57:46.376Z,85.90
2018-10-09T18:02:49.788Z,86.30
2018-10-09T18:07:52.987Z,86.70
2018-10-09T18:12:56.444Z,87.30
2018-10-09T18:17:59.542Z,87.60
2018-10-09T18:23:02.785Z,88.10
2018-10-09T18:28:06.607Z,88.60
2018-10-09T18:33:09.826Z,88.60
2018-10-09T18:38:13.035Z,89.00
2018-10-09T18:43:16.222Z,89.00
2018-10-09T18:48:19.285Z,89.20
2018-10-09T18:53:22.467Z,89.30
2018-10-09T18:58:25.703Z,89.50
2018-10-09T19:03:28.877Z,89.70
2018-10-09T19:08:32.005Z,89.90
2018-10-09T19:13:35.177Z,90.00
2018-10-09T19:18:38.394Z,90.00
2018-10-09T19:23:41.667Z,90.30
2018-10-09T19:28:44.795Z,90.30
2018-10-09T19:33:48.189Z,90.40
2018-10-09T19:38:51.347Z,90.50
2018-10-09T19:43:54.505Z,90.60
2018-10-09T19:48:57.651Z,90.70
2018-10-09T19:54:00.771Z,90.80
2018-10-09T19:59:03.966Z,90.60
2018-10-09T20:04:07.108Z,90.90
2018-10-09T20:09:11.818Z,91.30
2018-10-09T20:14:15.175Z,91.10
2018-10-09T20:19:18.383Z,91.20
2018-10-09T20:24:21.593Z,91.20
2018-10-09T20:29:24.723Z,91.10
2018-10-09T20:34:27.855Z,91.20
2018-10-09T20:39:31.115Z,91.30
2018-10-09T20:44:34.287Z,91.40
2018-10-09T20:49:37.393Z,91.40
2018-10-09T20:54:40.716Z,91.60
2018-10-09T20:59:43.820Z,91.90
2018-10-09T21:04:46.998Z,92.50
2018-10-09T21:09:50.185Z,92.10
2018-10-09T21:14:53.306Z,92.20
2018-10-09T21:19:56.481Z,92.10
2018-10-09T21:24:59.666Z,92.00
2018-10-09T21:30:02.870Z,91.80
2018-10-09T21:35:06.110Z,92.20
2018-10-09T21:40:09.345Z,92.40
2018-10-09T21:45:12.570Z,92.70
2018-10-09T21:50:15.666Z,92.60
2018-10-09T21:55:18.856Z,92.80
2018-10-09T22:00:21.983Z,92.80
2018-10-09T22:05:25.173Z,92.50
2018-10-09T22:10:28.380Z,92.60
2018-10-09T22:15:31.560Z,92.50
2018-10-09T22:20:34.747Z,92.30
2018-10-09T22:25:37.983Z,92.30
2018-10-09T22:30:41.122Z,92.10
2018-10-09T22:35:44.275Z,92.00
2018-10-09T22:40:47.409Z,92.20
2018-10-09T22:45:50.652Z,92.40
2018-10-09T22:50:53.810Z,92.60
2018-10-09T22:55:56.932Z,92.60
2018-10-09T23:01:00.078Z,92.50
2018-10-09T23:06:03.293Z,92.60
2018-10-09T23:11:07.178Z,92.80
2018-10-09T23:16:10.307Z,92.70
2018-10-09T23:21:13.411Z,92.90
2018-10-09T23:26:16.550Z,93.10
2018-10-09T23:31:19.740Z,93.00
2018-10-09T23:36:22.947Z,92.80
2018-10-09T23:41:26.122Z,92.50
2018-10-09T23:46:29.353Z,92.50
2018-10-09T23:51:32.483Z,92.60
2018-10-09T23:56:35.707Z,92.60
